sensor_id;sensor_type;location;lat;lon;timestamp;P1;durP1;ratioP1;P2;durP2;ratioP2
81627;SDS011;71036;51.102;6.514;2024-01-06T00:01:13;25.23;;;11.13;;
81627;SDS011;71036;51.102;6.514;2024-01-06T00:03:38;32.30;;;12.00;;
81627;SDS011;71036;51.102;6.514;2024-01-06T00:06:04;33.57;;;11.50;;
81627;SDS011;71036;51.102;6.514;2024-01-06T00:08:29;32.50;;;13.13;;
81627;SDS011;71036;51.102;6.514;2024-01-06T00:10:54;27.33;;;12.33;;
81627;SDS011;71036;51.102;6.514;2024-01-06T00:13:20;25.60;;;12.47;;
81627;SDS011;71036;51.102;6.514;2024-01-06T00:15:45;33.90;;;12.10;;
81627;SDS011;71036;51.102;6.514;2024-01-06T00:18:10;28.67;;;12.57;;
81627;SDS011;71036;51.102;6.514;2024-01-06T00:20:35;35.53;;;13.43;;
81627;SDS011;71036;51.102;6.514;2024-01-06T00:23:00;28.53;;;12.20;;
81627;SDS011;71036;51.102;6.514;2024-01-06T00:25:26;31.10;;;13.77;;
81627;SDS011;71036;51.102;6.514;2024-01-06T00:27:51;33.93;;;13.83;;
81627;SDS011;71036;51.102;6.514;2024-01-06T00:30:16;43.45;;;14.32;;
81627;SDS011;71036;51.102;6.514;2024-01-06T00:32:41;31.30;;;14.38;;
81627;SDS011;71036;51.102;6.514;2024-01-06T00:35:06;36.33;;;14.10;;
81627;SDS011;71036;51.102;6.514;2024-01-06T00:37:32;33.83;;;13.80;;
81627;SDS011;71036;51.102;6.514;2024-01-06T00:39:57;40.10;;;15.53;;
81627;SDS011;71036;51.102;6.514;2024-01-06T00:42:22;29.33;;;12.13;;
81627;SDS011;71036;51.102;6.514;2024-01-06T00:44:47;34.58;;;13.45;;
81627;SDS011;71036;51.102;6.514;2024-01-06T00:47:12;29.23;;;13.40;;
81627;SDS011;71036;51.102;6.514;2024-01-06T00:49:37;32.90;;;13.30;;
81627;SDS011;71036;51.102;6.514;2024-01-06T00:52:03;33.90;;;14.60;;
81627;SDS011;71036;51.102;6.514;2024-01-06T00:54:28;41.57;;;13.10;;
81627;SDS011;71036;51.102;6.514;2024-01-06T00:56:54;34.63;;;14.63;;
81627;SDS011;71036;51.102;6.514;2024-01-06T00:59:19;35.97;;;13.93;;
81627;SDS011;71036;51.102;6.514;2024-01-06T01:01:44;39.80;;;15.13;;
81627;SDS011;71036;51.102;6.514;2024-01-06T01:04:09;39.17;;;15.47;;
81627;SDS011;71036;51.102;6.514;2024-01-06T01:06:36;36.20;;;14.82;;
81627;SDS011;71036;51.102;6.514;2024-01-06T01:09:01;38.90;;;14.40;;
81627;SDS011;71036;51.102;6.514;2024-01-06T01:11:26;41.08;;;15.90;;
81627;SDS011;71036;51.102;6.514;2024-01-06T01:13:51;47.80;;;17.90;;
81627;SDS011;71036;51.102;6.514;2024-01-06T01:16:16;52.72;;;17.70;;
81627;SDS011;71036;51.102;6.514;2024-01-06T01:18:42;45.10;;;16.33;;
81627;SDS011;71036;51.102;6.514;2024-01-06T01:21:07;50.70;;;17.27;;
81627;SDS011;71036;51.102;6.514;2024-01-06T01:23:32;45.80;;;16.33;;
81627;SDS011;71036;51.102;6.514;2024-01-06T01:25:57;44.95;;;16.92;;
81627;SDS011;71036;51.102;6.514;2024-01-06T01:28:23;53.70;;;18.13;;
81627;SDS011;71036;51.102;6.514;2024-01-06T01:30:48;44.37;;;16.47;;
81627;SDS011;71036;51.102;6.514;2024-01-06T01:33:13;48.63;;;17.30;;
81627;SDS011;71036;51.102;6.514;2024-01-06T01:35:38;51.33;;;17.57;;
81627;SDS011;71036;51.102;6.514;2024-01-06T01:38:03;44.63;;;14.90;;
81627;SDS011;71036;51.102;6.514;2024-01-06T01:40:29;48.90;;;16.90;;
81627;SDS011;71036;51.102;6.514;2024-01-06T01:42:54;51.70;;;18.35;;
81627;SDS011;71036;51.102;6.514;2024-01-06T01:45:19;65.30;;;19.75;;
81627;SDS011;71036;51.102;6.514;2024-01-06T01:47:44;58.83;;;17.30;;
81627;SDS011;71036;51.102;6.514;2024-01-06T01:50:10;58.73;;;20.80;;
81627;SDS011;71036;51.102;6.514;2024-01-06T01:52:36;58.00;;;18.90;;
81627;SDS011;71036;51.102;6.514;2024-01-06T01:55:03;64.60;;;20.97;;
81627;SDS011;71036;51.102;6.514;2024-01-06T01:57:28;63.70;;;20.00;;
81627;SDS011;71036;51.102;6.514;2024-01-06T01:59:53;67.87;;;20.90;;
81627;SDS011;71036;51.102;6.514;2024-01-06T02:02:18;57.80;;;20.13;;
81627;SDS011;71036;51.102;6.514;2024-01-06T02:04:44;59.37;;;19.87;;
81627;SDS011;71036;51.102;6.514;2024-01-06T02:07:10;54.67;;;18.87;;
81627;SDS011;71036;51.102;6.514;2024-01-06T02:09:35;63.60;;;20.00;;
81627;SDS011;71036;51.102;6.514;2024-01-06T02:12:00;60.93;;;21.60;;
81627;SDS011;71036;51.102;6.514;2024-01-06T02:14:26;77.60;;;20.80;;
81627;SDS011;71036;51.102;6.514;2024-01-06T02:16:51;63.13;;;19.60;;
81627;SDS011;71036;51.102;6.514;2024-01-06T02:19:16;67.60;;;21.65;;
81627;SDS011;71036;51.102;6.514;2024-01-06T02:21:43;66.50;;;21.97;;
81627;SDS011;71036;51.102;6.514;2024-01-06T02:24:08;73.33;;;22.40;;
81627;SDS011;71036;51.102;6.514;2024-01-06T02:26:33;82.93;;;22.80;;
81627;SDS011;71036;51.102;6.514;2024-01-06T02:28:58;69.00;;;21.00;;
81627;SDS011;71036;51.102;6.514;2024-01-06T02:31:24;64.03;;;22.67;;
81627;SDS011;71036;51.102;6.514;2024-01-06T02:33:49;66.80;;;20.90;;
81627;SDS011;71036;51.102;6.514;2024-01-06T02:36:14;77.32;;;21.10;;
81627;SDS011;71036;51.102;6.514;2024-01-06T02:38:39;69.13;;;22.27;;
81627;SDS011;71036;51.102;6.514;2024-01-06T02:41:04;56.60;;;20.35;;
81627;SDS011;71036;51.102;6.514;2024-01-06T02:43:29;64.40;;;22.52;;
81627;SDS011;71036;51.102;6.514;2024-01-06T02:45:54;67.82;;;24.23;;
81627;SDS011;71036;51.102;6.514;2024-01-06T02:48:23;70.10;;;21.70;;
81627;SDS011;71036;51.102;6.514;2024-01-06T02:50:48;78.47;;;22.27;;
81627;SDS011;71036;51.102;6.514;2024-01-06T02:53:13;66.30;;;21.35;;
81627;SDS011;71036;51.102;6.514;2024-01-06T02:55:38;65.20;;;20.87;;
81627;SDS011;71036;51.102;6.514;2024-01-06T02:58:04;67.23;;;21.50;;
81627;SDS011;71036;51.102;6.514;2024-01-06T03:00:29;77.23;;;22.90;;
81627;SDS011;71036;51.102;6.514;2024-01-06T03:02:54;64.25;;;19.95;;
81627;SDS011;71036;51.102;6.514;2024-01-06T03:05:19;61.60;;;21.90;;
81627;SDS011;71036;51.102;6.514;2024-01-06T03:07:44;77.35;;;22.23;;
81627;SDS011;71036;51.102;6.514;2024-01-06T03:10:09;71.95;;;22.40;;
81627;SDS011;71036;51.102;6.514;2024-01-06T03:12:35;58.90;;;21.50;;
81627;SDS011;71036;51.102;6.514;2024-01-06T03:15:00;60.10;;;20.17;;
81627;SDS011;71036;51.102;6.514;2024-01-06T03:17:25;65.03;;;20.97;;
81627;SDS011;71036;51.102;6.514;2024-01-06T03:19:50;66.90;;;23.17;;
81627;SDS011;71036;51.102;6.514;2024-01-06T03:22:15;61.13;;;21.70;;
81627;SDS011;71036;51.102;6.514;2024-01-06T03:24:40;60.53;;;22.93;;
81627;SDS011;71036;51.102;6.514;2024-01-06T03:27:06;67.27;;;23.00;;
81627;SDS011;71036;51.102;6.514;2024-01-06T03:29:31;71.07;;;23.67;;
81627;SDS011;71036;51.102;6.514;2024-01-06T03:31:56;64.97;;;21.50;;
81627;SDS011;71036;51.102;6.514;2024-01-06T03:34:21;73.47;;;20.90;;
81627;SDS011;71036;51.102;6.514;2024-01-06T03:36:46;60.43;;;21.20;;
81627;SDS011;71036;51.102;6.514;2024-01-06T03:39:11;57.77;;;21.37;;
81627;SDS011;71036;51.102;6.514;2024-01-06T03:41:38;71.57;;;23.00;;
81627;SDS011;71036;51.102;6.514;2024-01-06T03:44:03;53.10;;;21.03;;
81627;SDS011;71036;51.102;6.514;2024-01-06T03:46:28;60.27;;;21.17;;
81627;SDS011;71036;51.102;6.514;2024-01-06T03:48:53;57.25;;;20.90;;
81627;SDS011;71036;51.102;6.514;2024-01-06T03:51:19;48.73;;;19.87;;
81627;SDS011;71036;51.102;6.514;2024-01-06T03:53:44;67.70;;;22.33;;
81627;SDS011;71036;51.102;6.514;2024-01-06T03:56:09;60.88;;;22.58;;
81627;SDS011;71036;51.102;6.514;2024-01-06T03:58:34;64.10;;;21.60;;
81627;SDS011;71036;51.102;6.514;2024-01-06T04:01:00;59.30;;;20.47;;
81627;SDS011;71036;51.102;6.514;2024-01-06T04:03:25;53.27;;;20.13;;
81627;SDS011;71036;51.102;6.514;2024-01-06T04:05:50;58.22;;;20.05;;
81627;SDS011;71036;51.102;6.514;2024-01-06T04:08:15;51.40;;;17.47;;
81627;SDS011;71036;51.102;6.514;2024-01-06T04:10:40;49.97;;;17.37;;
81627;SDS011;71036;51.102;6.514;2024-01-06T04:13:06;30.43;;;12.47;;
81627;SDS011;71036;51.102;6.514;2024-01-06T04:15:31;31.17;;;13.40;;
81627;SDS011;71036;51.102;6.514;2024-01-06T04:18:01;32.55;;;11.77;;
81627;SDS011;71036;51.102;6.514;2024-01-06T04:20:26;26.33;;;9.90;;
81627;SDS011;71036;51.102;6.514;2024-01-06T04:22:51;25.52;;;9.02;;
81627;SDS011;71036;51.102;6.514;2024-01-06T04:25:16;30.00;;;10.65;;
81627;SDS011;71036;51.102;6.514;2024-01-06T04:27:41;31.83;;;10.75;;
81627;SDS011;71036;51.102;6.514;2024-01-06T04:30:06;26.43;;;10.77;;
81627;SDS011;71036;51.102;6.514;2024-01-06T04:32:32;23.40;;;9.77;;
81627;SDS011;71036;51.102;6.514;2024-01-06T04:34:57;20.02;;;8.40;;
81627;SDS011;71036;51.102;6.514;2024-01-06T04:37:22;28.50;;;10.10;;
81627;SDS011;71036;51.102;6.514;2024-01-06T04:39:47;28.67;;;10.37;;
81627;SDS011;71036;51.102;6.514;2024-01-06T04:42:12;23.27;;;9.17;;
81627;SDS011;71036;51.102;6.514;2024-01-06T04:44:38;31.03;;;9.57;;
81627;SDS011;71036;51.102;6.514;2024-01-06T04:47:03;23.17;;;9.30;;
81627;SDS011;71036;51.102;6.514;2024-01-06T04:49:28;31.20;;;10.07;;
81627;SDS011;71036;51.102;6.514;2024-01-06T04:51:53;22.70;;;8.10;;
81627;SDS011;71036;51.102;6.514;2024-01-06T04:54:18;24.97;;;8.90;;
81627;SDS011;71036;51.102;6.514;2024-01-06T04:56:43;34.72;;;10.90;;
81627;SDS011;71036;51.102;6.514;2024-01-06T04:59:09;24.85;;;8.95;;
81627;SDS011;71036;51.102;6.514;2024-01-06T05:01:34;28.42;;;8.13;;
81627;SDS011;71036;51.102;6.514;2024-01-06T05:03:59;22.70;;;7.10;;
81627;SDS011;71036;51.102;6.514;2024-01-06T05:06:24;25.33;;;8.27;;
81627;SDS011;71036;51.102;6.514;2024-01-06T05:08:50;19.23;;;7.53;;
81627;SDS011;71036;51.102;6.514;2024-01-06T05:11:15;23.10;;;7.93;;
81627;SDS011;71036;51.102;6.514;2024-01-06T05:13:40;15.70;;;6.67;;
81627;SDS011;71036;51.102;6.514;2024-01-06T05:16:05;14.70;;;5.83;;
81627;SDS011;71036;51.102;6.514;2024-01-06T05:18:30;20.03;;;7.30;;
81627;SDS011;71036;51.102;6.514;2024-01-06T05:20:56;23.53;;;7.67;;
81627;SDS011;71036;51.102;6.514;2024-01-06T05:23:21;19.13;;;6.67;;
81627;SDS011;71036;51.102;6.514;2024-01-06T05:25:46;23.27;;;7.77;;
81627;SDS011;71036;51.102;6.514;2024-01-06T05:28:11;17.45;;;6.53;;
81627;SDS011;71036;51.102;6.514;2024-01-06T05:30:37;19.13;;;7.70;;
81627;SDS011;71036;51.102;6.514;2024-01-06T05:33:02;20.83;;;6.87;;
81627;SDS011;71036;51.102;6.514;2024-01-06T05:35:28;17.70;;;6.30;;
81627;SDS011;71036;51.102;6.514;2024-01-06T05:37:53;17.85;;;7.25;;
81627;SDS011;71036;51.102;6.514;2024-01-06T05:40:18;13.43;;;5.88;;
81627;SDS011;71036;51.102;6.514;2024-01-06T05:42:44;15.77;;;6.30;;
81627;SDS011;71036;51.102;6.514;2024-01-06T05:45:12;17.17;;;6.75;;
81627;SDS011;71036;51.102;6.514;2024-01-06T05:47:38;16.80;;;6.17;;
81627;SDS011;71036;51.102;6.514;2024-01-06T05:50:03;16.37;;;7.13;;
81627;SDS011;71036;51.102;6.514;2024-01-06T05:52:28;19.30;;;8.10;;
81627;SDS011;71036;51.102;6.514;2024-01-06T05:54:53;15.17;;;6.90;;
81627;SDS011;71036;51.102;6.514;2024-01-06T05:57:18;21.20;;;6.75;;
81627;SDS011;71036;51.102;6.514;2024-01-06T05:59:44;21.10;;;7.70;;
81627;SDS011;71036;51.102;6.514;2024-01-06T06:02:09;18.40;;;7.23;;
81627;SDS011;71036;51.102;6.514;2024-01-06T06:04:34;16.53;;;6.87;;
81627;SDS011;71036;51.102;6.514;2024-01-06T06:06:59;23.83;;;7.17;;
81627;SDS011;71036;51.102;6.514;2024-01-06T06:09:24;23.70;;;7.18;;
81627;SDS011;71036;51.102;6.514;2024-01-06T06:11:49;18.43;;;7.63;;
81627;SDS011;71036;51.102;6.514;2024-01-06T06:14:14;19.58;;;7.47;;
81627;SDS011;71036;51.102;6.514;2024-01-06T06:16:40;20.00;;;7.60;;
81627;SDS011;71036;51.102;6.514;2024-01-06T06:19:05;20.52;;;7.88;;
81627;SDS011;71036;51.102;6.514;2024-01-06T06:21:31;18.47;;;7.20;;
81627;SDS011;71036;51.102;6.514;2024-01-06T06:23:56;18.73;;;7.65;;
81627;SDS011;71036;51.102;6.514;2024-01-06T06:26:21;18.27;;;7.30;;
81627;SDS011;71036;51.102;6.514;2024-01-06T06:28:46;19.17;;;6.50;;
81627;SDS011;71036;51.102;6.514;2024-01-06T06:31:11;21.58;;;8.05;;
81627;SDS011;71036;51.102;6.514;2024-01-06T06:33:37;20.20;;;7.23;;
81627;SDS011;71036;51.102;6.514;2024-01-06T06:36:02;22.20;;;7.37;;
81627;SDS011;71036;51.102;6.514;2024-01-06T06:38:27;17.60;;;7.23;;
81627;SDS011;71036;51.102;6.514;2024-01-06T06:40:53;21.03;;;7.30;;
81627;SDS011;71036;51.102;6.514;2024-01-06T06:43:18;17.03;;;7.20;;
81627;SDS011;71036;51.102;6.514;2024-01-06T06:45:43;15.90;;;6.67;;
81627;SDS011;71036;51.102;6.514;2024-01-06T06:48:08;19.65;;;7.07;;
81627;SDS011;71036;51.102;6.514;2024-01-06T06:50:33;19.00;;;7.27;;
81627;SDS011;71036;51.102;6.514;2024-01-06T06:52:59;15.23;;;6.60;;
81627;SDS011;71036;51.102;6.514;2024-01-06T06:55:24;15.50;;;6.90;;
81627;SDS011;71036;51.102;6.514;2024-01-06T06:57:49;17.47;;;6.93;;
81627;SDS011;71036;51.102;6.514;2024-01-06T07:00:14;16.33;;;6.82;;
81627;SDS011;71036;51.102;6.514;2024-01-06T07:02:41;19.83;;;6.43;;
81627;SDS011;71036;51.102;6.514;2024-01-06T07:05:06;18.40;;;7.28;;
81627;SDS011;71036;51.102;6.514;2024-01-06T07:07:32;18.63;;;7.00;;
81627;SDS011;71036;51.102;6.514;2024-01-06T07:09:57;13.27;;;6.83;;
81627;SDS011;71036;51.102;6.514;2024-01-06T07:12:22;19.10;;;7.40;;
81627;SDS011;71036;51.102;6.514;2024-01-06T07:14:47;22.37;;;7.90;;
81627;SDS011;71036;51.102;6.514;2024-01-06T07:17:13;20.03;;;7.00;;
81627;SDS011;71036;51.102;6.514;2024-01-06T07:19:38;19.83;;;6.47;;
81627;SDS011;71036;51.102;6.514;2024-01-06T07:22:03;18.60;;;8.10;;
81627;SDS011;71036;51.102;6.514;2024-01-06T07:24:30;20.57;;;8.20;;
81627;SDS011;71036;51.102;6.514;2024-01-06T07:26:55;17.57;;;7.50;;
81627;SDS011;71036;51.102;6.514;2024-01-06T07:29:20;20.77;;;8.10;;
81627;SDS011;71036;51.102;6.514;2024-01-06T07:31:45;20.40;;;6.83;;
81627;SDS011;71036;51.102;6.514;2024-01-06T07:34:12;19.77;;;8.20;;
81627;SDS011;71036;51.102;6.514;2024-01-06T07:36:37;16.25;;;6.15;;
81627;SDS011;71036;51.102;6.514;2024-01-06T07:39:03;19.53;;;7.93;;
81627;SDS011;71036;51.102;6.514;2024-01-06T07:41:29;27.67;;;6.93;;
81627;SDS011;71036;51.102;6.514;2024-01-06T07:43:55;16.40;;;6.10;;
81627;SDS011;71036;51.102;6.514;2024-01-06T07:46:21;19.30;;;7.27;;
81627;SDS011;71036;51.102;6.514;2024-01-06T07:48:46;15.02;;;6.47;;
81627;SDS011;71036;51.102;6.514;2024-01-06T07:51:11;17.60;;;6.13;;
81627;SDS011;71036;51.102;6.514;2024-01-06T07:53:36;21.20;;;7.07;;
81627;SDS011;71036;51.102;6.514;2024-01-06T07:56:01;16.80;;;6.65;;
81627;SDS011;71036;51.102;6.514;2024-01-06T07:58:26;15.50;;;7.07;;
81627;SDS011;71036;51.102;6.514;2024-01-06T08:00:53;15.87;;;5.30;;
81627;SDS011;71036;51.102;6.514;2024-01-06T08:03:18;19.13;;;7.75;;
81627;SDS011;71036;51.102;6.514;2024-01-06T08:05:43;14.93;;;6.82;;
81627;SDS011;71036;51.102;6.514;2024-01-06T08:08:08;20.83;;;7.53;;
81627;SDS011;71036;51.102;6.514;2024-01-06T08:10:34;16.37;;;6.47;;
81627;SDS011;71036;51.102;6.514;2024-01-06T08:12:59;23.33;;;6.40;;
81627;SDS011;71036;51.102;6.514;2024-01-06T08:15:24;21.20;;;7.68;;
81627;SDS011;71036;51.102;6.514;2024-01-06T08:17:49;20.17;;;7.10;;
81627;SDS011;71036;51.102;6.514;2024-01-06T08:20:14;19.08;;;7.60;;
81627;SDS011;71036;51.102;6.514;2024-01-06T08:22:40;17.17;;;6.70;;
81627;SDS011;71036;51.102;6.514;2024-01-06T08:25:05;15.50;;;6.03;;
81627;SDS011;71036;51.102;6.514;2024-01-06T08:27:32;13.43;;;6.73;;
81627;SDS011;71036;51.102;6.514;2024-01-06T08:29:58;14.50;;;7.33;;
81627;SDS011;71036;51.102;6.514;2024-01-06T08:32:23;19.00;;;6.73;;
81627;SDS011;71036;51.102;6.514;2024-01-06T08:34:48;14.32;;;5.90;;
81627;SDS011;71036;51.102;6.514;2024-01-06T08:37:14;17.07;;;6.50;;
81627;SDS011;71036;51.102;6.514;2024-01-06T08:39:39;15.73;;;6.77;;
81627;SDS011;71036;51.102;6.514;2024-01-06T08:42:04;13.53;;;5.27;;
81627;SDS011;71036;51.102;6.514;2024-01-06T08:44:29;13.40;;;5.30;;
81627;SDS011;71036;51.102;6.514;2024-01-06T08:46:54;18.20;;;6.03;;
81627;SDS011;71036;51.102;6.514;2024-01-06T08:49:20;13.80;;;5.35;;
81627;SDS011;71036;51.102;6.514;2024-01-06T08:51:45;15.13;;;6.80;;
81627;SDS011;71036;51.102;6.514;2024-01-06T08:54:10;17.60;;;6.00;;
81627;SDS011;71036;51.102;6.514;2024-01-06T08:56:35;20.27;;;7.37;;
81627;SDS011;71036;51.102;6.514;2024-01-06T08:59:01;13.60;;;5.47;;
81627;SDS011;71036;51.102;6.514;2024-01-06T09:01:26;14.17;;;5.93;;
81627;SDS011;71036;51.102;6.514;2024-01-06T09:03:51;18.03;;;7.27;;
81627;SDS011;71036;51.102;6.514;2024-01-06T09:06:16;12.50;;;5.47;;
81627;SDS011;71036;51.102;6.514;2024-01-06T09:08:41;15.77;;;6.97;;
81627;SDS011;71036;51.102;6.514;2024-01-06T09:11:07;14.03;;;6.40;;
81627;SDS011;71036;51.102;6.514;2024-01-06T09:13:32;14.20;;;5.43;;
81627;SDS011;71036;51.102;6.514;2024-01-06T09:15:57;24.13;;;6.80;;
81627;SDS011;71036;51.102;6.514;2024-01-06T09:18:23;13.50;;;6.13;;
81627;SDS011;71036;51.102;6.514;2024-01-06T09:20:48;14.68;;;6.63;;
81627;SDS011;71036;51.102;6.514;2024-01-06T09:23:13;16.07;;;7.03;;
81627;SDS011;71036;51.102;6.514;2024-01-06T09:25:38;17.87;;;7.17;;
81627;SDS011;71036;51.102;6.514;2024-01-06T09:28:05;12.13;;;5.23;;
81627;SDS011;71036;51.102;6.514;2024-01-06T09:30:30;14.33;;;6.67;;
81627;SDS011;71036;51.102;6.514;2024-01-06T09:32:55;14.63;;;6.85;;
81627;SDS011;71036;51.102;6.514;2024-01-06T09:35:20;15.20;;;6.03;;
81627;SDS011;71036;51.102;6.514;2024-01-06T09:37:45;16.80;;;7.30;;
81627;SDS011;71036;51.102;6.514;2024-01-06T09:40:11;18.93;;;7.47;;
81627;SDS011;71036;51.102;6.514;2024-01-06T09:42:36;11.43;;;5.73;;
81627;SDS011;71036;51.102;6.514;2024-01-06T09:45:02;15.23;;;5.90;;
81627;SDS011;71036;51.102;6.514;2024-01-06T09:47:27;16.13;;;6.40;;
81627;SDS011;71036;51.102;6.514;2024-01-06T09:49:53;14.10;;;6.83;;
81627;SDS011;71036;51.102;6.514;2024-01-06T09:52:21;17.47;;;7.40;;
81627;SDS011;71036;51.102;6.514;2024-01-06T09:54:51;12.17;;;5.90;;
81627;SDS011;71036;51.102;6.514;2024-01-06T09:57:16;19.93;;;6.90;;
81627;SDS011;71036;51.102;6.514;2024-01-06T09:59:43;17.00;;;7.10;;
81627;SDS011;71036;51.102;6.514;2024-01-06T10:02:09;11.70;;;5.30;;
81627;SDS011;71036;51.102;6.514;2024-01-06T10:04:35;15.17;;;5.10;;
81627;SDS011;71036;51.102;6.514;2024-01-06T10:07:00;14.93;;;5.80;;
81627;SDS011;71036;51.102;6.514;2024-01-06T10:09:26;11.87;;;5.43;;
81627;SDS011;71036;51.102;6.514;2024-01-06T10:11:54;20.73;;;5.47;;
81627;SDS011;71036;51.102;6.514;2024-01-06T10:14:19;16.10;;;6.10;;
81627;SDS011;71036;51.102;6.514;2024-01-06T10:16:44;18.70;;;7.37;;
81627;SDS011;71036;51.102;6.514;2024-01-06T10:19:10;12.23;;;5.73;;
81627;SDS011;71036;51.102;6.514;2024-01-06T10:21:36;12.27;;;5.60;;
81627;SDS011;71036;51.102;6.514;2024-01-06T10:24:02;10.77;;;4.73;;
81627;SDS011;71036;51.102;6.514;2024-01-06T10:26:28;13.90;;;5.67;;
81627;SDS011;71036;51.102;6.514;2024-01-06T10:28:53;16.40;;;6.00;;
81627;SDS011;71036;51.102;6.514;2024-01-06T10:31:18;12.40;;;5.38;;
81627;SDS011;71036;51.102;6.514;2024-01-06T10:33:44;13.83;;;5.57;;
81627;SDS011;71036;51.102;6.514;2024-01-06T10:36:09;14.40;;;5.17;;
81627;SDS011;71036;51.102;6.514;2024-01-06T10:38:34;15.97;;;6.27;;
81627;SDS011;71036;51.102;6.514;2024-01-06T10:41:00;13.27;;;5.80;;
81627;SDS011;71036;51.102;6.514;2024-01-06T10:43:27;15.23;;;5.90;;
81627;SDS011;71036;51.102;6.514;2024-01-06T10:45:57;13.70;;;6.33;;
81627;SDS011;71036;51.102;6.514;2024-01-06T10:48:24;14.17;;;4.80;;
81627;SDS011;71036;51.102;6.514;2024-01-06T10:50:50;13.43;;;5.97;;
81627;SDS011;71036;51.102;6.514;2024-01-06T10:53:15;17.23;;;6.60;;
81627;SDS011;71036;51.102;6.514;2024-01-06T10:55:42;13.70;;;6.60;;
81627;SDS011;71036;51.102;6.514;2024-01-06T10:58:07;16.53;;;7.40;;
81627;SDS011;71036;51.102;6.514;2024-01-06T11:00:32;14.00;;;5.90;;
81627;SDS011;71036;51.102;6.514;2024-01-06T11:02:57;25.50;;;8.23;;
81627;SDS011;71036;51.102;6.514;2024-01-06T11:05:24;17.40;;;6.93;;
81627;SDS011;71036;51.102;6.514;2024-01-06T11:07:50;12.00;;;5.50;;
81627;SDS011;71036;51.102;6.514;2024-01-06T11:10:19;15.70;;;6.70;;
81627;SDS011;71036;51.102;6.514;2024-01-06T11:12:44;17.87;;;6.90;;
81627;SDS011;71036;51.102;6.514;2024-01-06T11:15:10;19.00;;;7.50;;
81627;SDS011;71036;51.102;6.514;2024-01-06T11:17:55;20.37;;;7.33;;
81627;SDS011;71036;51.102;6.514;2024-01-06T11:20:23;14.10;;;6.50;;
81627;SDS011;71036;51.102;6.514;2024-01-06T11:22:49;15.53;;;6.70;;
81627;SDS011;71036;51.102;6.514;2024-01-06T11:25:15;22.00;;;7.37;;
81627;SDS011;71036;51.102;6.514;2024-01-06T11:27:41;29.87;;;7.30;;
81627;SDS011;71036;51.102;6.514;2024-01-06T11:30:07;23.03;;;8.57;;
81627;SDS011;71036;51.102;6.514;2024-01-06T11:32:33;21.17;;;8.07;;
81627;SDS011;71036;51.102;6.514;2024-01-06T11:35:13;17.60;;;7.73;;
81627;SDS011;71036;51.102;6.514;2024-01-06T11:43:06;13.67;;;6.83;;
81627;SDS011;71036;51.102;6.514;2024-01-06T11:45:32;18.50;;;7.33;;
81627;SDS011;71036;51.102;6.514;2024-01-06T11:47:58;15.63;;;6.60;;
81627;SDS011;71036;51.102;6.514;2024-01-06T11:50:25;20.07;;;8.27;;
81627;SDS011;71036;51.102;6.514;2024-01-06T11:52:51;24.03;;;9.70;;
81627;SDS011;71036;51.102;6.514;2024-01-06T11:55:19;24.77;;;8.40;;
81627;SDS011;71036;51.102;6.514;2024-01-06T11:57:44;15.73;;;6.00;;
81627;SDS011;71036;51.102;6.514;2024-01-06T12:00:09;16.20;;;5.30;;
81627;SDS011;71036;51.102;6.514;2024-01-06T12:02:35;14.10;;;6.10;;
81627;SDS011;71036;51.102;6.514;2024-01-06T12:05:00;14.95;;;5.53;;
81627;SDS011;71036;51.102;6.514;2024-01-06T12:07:25;16.63;;;6.70;;
81627;SDS011;71036;51.102;6.514;2024-01-06T12:09:51;17.63;;;6.53;;
81627;SDS011;71036;51.102;6.514;2024-01-06T12:12:25;18.60;;;5.10;;
81627;SDS011;71036;51.102;6.514;2024-01-06T12:14:50;11.00;;;5.80;;
81627;SDS011;71036;51.102;6.514;2024-01-06T12:17:15;16.93;;;6.27;;
81627;SDS011;71036;51.102;6.514;2024-01-06T12:19:40;22.77;;;8.10;;
81627;SDS011;71036;51.102;6.514;2024-01-06T12:22:12;25.60;;;8.13;;
81627;SDS011;71036;51.102;6.514;2024-01-06T12:24:38;18.80;;;7.17;;
81627;SDS011;71036;51.102;6.514;2024-01-06T12:27:03;20.27;;;8.63;;
81627;SDS011;71036;51.102;6.514;2024-01-06T12:29:31;28.33;;;8.70;;
81627;SDS011;71036;51.102;6.514;2024-01-06T12:31:59;26.90;;;9.10;;
81627;SDS011;71036;51.102;6.514;2024-01-06T12:34:25;25.60;;;10.23;;
81627;SDS011;71036;51.102;6.514;2024-01-06T12:36:52;19.20;;;8.37;;
81627;SDS011;71036;51.102;6.514;2024-01-06T12:39:17;25.47;;;8.37;;
81627;SDS011;71036;51.102;6.514;2024-01-06T12:41:43;24.37;;;7.97;;
81627;SDS011;71036;51.102;6.514;2024-01-06T12:44:09;24.37;;;10.17;;
81627;SDS011;71036;51.102;6.514;2024-01-06T12:46:34;21.80;;;9.00;;
81627;SDS011;71036;51.102;6.514;2024-01-06T12:48:59;26.97;;;9.60;;
81627;SDS011;71036;51.102;6.514;2024-01-06T12:51:25;23.67;;;8.80;;
81627;SDS011;71036;51.102;6.514;2024-01-06T12:53:50;22.53;;;8.70;;
81627;SDS011;71036;51.102;6.514;2024-01-06T12:56:15;28.00;;;8.83;;
81627;SDS011;71036;51.102;6.514;2024-01-06T12:58:40;24.80;;;9.40;;
81627;SDS011;71036;51.102;6.514;2024-01-06T13:01:06;25.63;;;8.93;;
81627;SDS011;71036;51.102;6.514;2024-01-06T13:03:32;28.60;;;10.03;;
81627;SDS011;71036;51.102;6.514;2024-01-06T13:05:57;22.90;;;10.27;;
81627;SDS011;71036;51.102;6.514;2024-01-06T13:08:22;24.63;;;11.43;;
81627;SDS011;71036;51.102;6.514;2024-01-06T13:10:47;23.27;;;10.30;;
81627;SDS011;71036;51.102;6.514;2024-01-06T13:13:12;27.27;;;9.43;;
81627;SDS011;71036;51.102;6.514;2024-01-06T13:15:38;27.38;;;11.20;;
81627;SDS011;71036;51.102;6.514;2024-01-06T13:18:03;28.37;;;9.50;;
81627;SDS011;71036;51.102;6.514;2024-01-06T13:20:29;27.20;;;9.93;;
81627;SDS011;71036;51.102;6.514;2024-01-06T13:22:54;24.60;;;9.40;;
81627;SDS011;71036;51.102;6.514;2024-01-06T13:25:20;27.97;;;10.87;;
81627;SDS011;71036;51.102;6.514;2024-01-06T13:27:47;33.83;;;11.60;;
81627;SDS011;71036;51.102;6.514;2024-01-06T13:30:12;27.95;;;10.85;;
81627;SDS011;71036;51.102;6.514;2024-01-06T13:32:37;34.23;;;9.73;;
81627;SDS011;71036;51.102;6.514;2024-01-06T13:35:03;31.57;;;9.40;;
81627;SDS011;71036;51.102;6.514;2024-01-06T13:37:33;25.27;;;11.43;;
81627;SDS011;71036;51.102;6.514;2024-01-06T13:39:59;30.53;;;11.57;;
81627;SDS011;71036;51.102;6.514;2024-01-06T13:42:24;40.78;;;12.45;;
81627;SDS011;71036;51.102;6.514;2024-01-06T13:44:49;35.77;;;11.63;;
81627;SDS011;71036;51.102;6.514;2024-01-06T13:47:14;34.20;;;12.43;;
81627;SDS011;71036;51.102;6.514;2024-01-06T13:49:40;27.93;;;9.93;;
81627;SDS011;71036;51.102;6.514;2024-01-06T13:52:05;31.83;;;11.27;;
81627;SDS011;71036;51.102;6.514;2024-01-06T13:54:32;37.80;;;11.90;;
81627;SDS011;71036;51.102;6.514;2024-01-06T13:56:57;43.53;;;12.90;;
81627;SDS011;71036;51.102;6.514;2024-01-06T13:59:23;38.43;;;12.63;;
81627;SDS011;71036;51.102;6.514;2024-01-06T14:01:48;32.17;;;13.27;;
81627;SDS011;71036;51.102;6.514;2024-01-06T14:04:13;29.93;;;12.17;;
81627;SDS011;71036;51.102;6.514;2024-01-06T14:06:38;52.03;;;13.23;;
81627;SDS011;71036;51.102;6.514;2024-01-06T14:09:04;35.00;;;12.80;;
81627;SDS011;71036;51.102;6.514;2024-01-06T14:11:30;31.30;;;11.70;;
81627;SDS011;71036;51.102;6.514;2024-01-06T14:13:57;30.33;;;12.03;;
81627;SDS011;71036;51.102;6.514;2024-01-06T14:16:22;40.90;;;13.70;;
81627;SDS011;71036;51.102;6.514;2024-01-06T14:18:47;31.20;;;11.20;;
81627;SDS011;71036;51.102;6.514;2024-01-06T14:21:12;34.17;;;11.40;;
81627;SDS011;71036;51.102;6.514;2024-01-06T14:23:43;32.47;;;11.83;;